sensor_id;sensor_type;location;lat;lon;timestamp;pressure;altitude;pressure_sealevel;temperature;humidity
14612;BME280;7392;52.078;11.650;2024-03-17T00:00:25;101583.38;;;3.13;100.00
14612;BME280;7392;52.078;11.650;2024-03-17T00:02:52;101592.06;;;3.12;100.00
14612;BME280;7392;52.078;11.650;2024-03-17T00:05:19;101595.47;;;3.10;100.00
14612;BME280;7392;52.078;11.650;2024-03-17T00:07:46;101585.66;;;3.06;100.00
14612;BME280;7392;52.078;11.650;2024-03-17T00:10:13;101603.94;;;3.03;100.00
14612;BME280;7392;52.078;11.650;2024-03-17T00:12:38;101602.06;;;3.00;100.00
14612;BME280;7392;52.078;11.650;2024-03-17T00:15:07;101605.47;;;2.97;100.00
14612;BME280;7392;52.078;11.650;2024-03-17T00:17:33;101617.59;;;2.95;100.00
14612;BME280;7392;52.078;11.650;2024-03-17T00:20:00;101608.78;;;2.93;100.00
14612;BME280;7392;52.078;11.650;2024-03-17T00:22:34;101613.06;;;2.91;100.00
14612;BME280;7392;52.078;11.650;2024-03-17T00:25:05;101613.00;;;2.90;100.00
14612;BME280;7392;52.078;11.650;2024-03-17T00:27:32;101617.34;;;2.89;100.00
14612;BME280;7392;52.078;11.650;2024-03-17T00:29:59;101608.53;;;2.87;100.00
14612;BME280;7392;52.078;11.650;2024-03-17T00:32:25;101607.53;;;2.85;100.00
14612;BME280;7392;52.078;11.650;2024-03-17T00:34:52;101611.91;;;2.85;100.00
14612;BME280;7392;52.078;11.650;2024-03-17T00:37:19;101625.81;;;2.82;100.00
14612;BME280;7392;52.078;11.650;2024-03-17T00:39:45;101627.50;;;2.81;100.00
14612;BME280;7392;52.078;11.650;2024-03-17T00:42:13;101629.09;;;2.78;100.00
14612;BME280;7392;52.078;11.650;2024-03-17T00:44:40;101629.97;;;2.77;100.00
14612;BME280;7392;52.078;11.650;2024-03-17T00:47:06;101624.63;;;2.75;100.00
14612;BME280;7392;52.078;11.650;2024-03-17T00:49:34;101628.06;;;2.74;100.00
14612;BME280;7392;52.078;11.650;2024-03-17T00:52:00;101627.25;;;2.75;100.00
14612;BME280;7392;52.078;11.650;2024-03-17T00:54:27;101621.94;;;2.74;100.00
14612;BME280;7392;52.078;11.650;2024-03-17T00:56:52;101624.50;;;2.72;100.00
14612;BME280;7392;52.078;11.650;2024-03-17T00:59:21;101615.75;;;2.72;100.00
14612;BME280;7392;52.078;11.650;2024-03-17T01:01:47;101614.75;;;2.70;100.00
14612;BME280;7392;52.078;11.650;2024-03-17T01:04:13;101624.34;;;2.69;100.00
14612;BME280;7392;52.078;11.650;2024-03-17T01:06:39;101618.16;;;2.67;100.00
14612;BME280;7392;52.078;11.650;2024-03-17T01:09:06;101629.53;;;2.68;100.00
14612;BME280;7392;52.078;11.650;2024-03-17T01:11:33;101624.16;;;2.65;100.00
14612;BME280;7392;52.078;11.650;2024-03-17T01:14:00;101622.38;;;2.64;100.00
14612;BME280;7392;52.078;11.650;2024-03-17T01:16:29;101627.53;;;2.62;100.00
14612;BME280;7392;52.078;11.650;2024-03-17T01:18:55;101629.22;;;2.60;100.00
14612;BME280;7392;52.078;11.650;2024-03-17T01:21:22;101624.78;;;2.59;100.00
14612;BME280;7392;52.078;11.650;2024-03-17T01:23:48;101622.00;;;2.56;100.00
14612;BME280;7392;52.078;11.650;2024-03-17T01:26:15;101621.06;;;2.54;100.00
14612;BME280;7392;52.078;11.650;2024-03-17T01:28:42;101625.41;;;2.53;100.00
14612;BME280;7392;52.078;11.650;2024-03-17T01:31:09;101620.09;;;2.52;100.00
14612;BME280;7392;52.078;11.650;2024-03-17T01:33:36;101623.47;;;2.49;100.00
14612;BME280;7392;52.078;11.650;2024-03-17T01:36:03;101614.63;;;2.47;100.00
14612;BME280;7392;52.078;11.650;2024-03-17T01:38:30;101616.38;;;2.47;100.00
14612;BME280;7392;52.078;11.650;2024-03-17T01:40:58;101626.78;;;2.45;100.00
14612;BME280;7392;52.078;11.650;2024-03-17T01:43:26;101616.22;;;2.43;100.00
14612;BME280;7392;52.078;11.650;2024-03-17T01:45:52;101625.75;;;2.41;100.00
14612;BME280;7392;52.078;11.650;2024-03-17T01:48:19;101620.53;;;2.41;100.00
14612;BME280;7392;52.078;11.650;2024-03-17T01:50:51;101616.00;;;2.39;100.00
14612;BME280;7392;52.078;11.650;2024-03-17T01:53:19;101622.19;;;2.39;100.00
14612;BME280;7392;52.078;11.650;2024-03-17T01:55:47;101621.25;;;2.39;100.00
14612;BME280;7392;52.078;11.650;2024-03-17T01:58:14;101622.19;;;2.39;100.00
14612;BME280;7392;52.078;11.650;2024-03-17T02:00:40;101623.88;;;2.39;100.00
14612;BME280;7392;52.078;11.650;2024-03-17T02:03:07;101613.28;;;2.36;100.00
14612;BME280;7392;52.078;11.650;2024-03-17T02:05:34;101618.53;;;2.36;100.00
14612;BME280;7392;52.078;11.650;2024-03-17T02:08:04;101615.84;;;2.34;100.00
14612;BME280;7392;52.078;11.650;2024-03-17T02:10:30;101611.41;;;2.33;100.00
14612;BME280;7392;52.078;11.650;2024-03-17T02:12:58;101607.81;;;2.31;100.00
14612;BME280;7392;52.078;11.650;2024-03-17T02:15:24;101609.56;;;2.31;100.00
14612;BME280;7392;52.078;11.650;2024-03-17T02:17:51;101605.13;;;2.30;100.00
14612;BME280;7392;52.078;11.650;2024-03-17T02:20:17;101610.38;;;2.30;100.00
14612;BME280;7392;52.078;11.650;2024-03-17T02:22:45;101605.88;;;2.27;100.00
14612;BME280;7392;52.078;11.650;2024-03-17T02:25:11;101601.47;;;2.26;100.00
14612;BME280;7392;52.078;11.650;2024-03-17T02:27:38;101598.78;;;2.24;100.00
14612;BME280;7392;52.078;11.650;2024-03-17T02:30:05;101608.31;;;2.22;100.00
14612;BME280;7392;52.078;11.650;2024-03-17T02:32:34;101601.19;;;2.20;100.00
14612;BME280;7392;52.078;11.650;2024-03-17T02:35:00;101603.66;;;2.17;100.00
14612;BME280;7392;52.078;11.650;2024-03-17T02:37:27;101594.03;;;2.16;100.00
14612;BME280;7392;52.078;11.650;2024-03-17T02:39:54;101598.31;;;2.14;100.00
14612;BME280;7392;52.078;11.650;2024-03-17T02:42:21;101599.94;;;2.12;100.00
14612;BME280;7392;52.078;11.650;2024-03-17T02:44:48;101604.22;;;2.10;100.00
14612;BME280;7392;52.078;11.650;2024-03-17T02:47:15;101600.63;;;2.08;100.00
14612;BME280;7392;52.078;11.650;2024-03-17T02:49:42;101609.31;;;2.06;100.00
14612;BME280;7392;52.078;11.650;2024-03-17T02:52:10;101607.38;;;2.02;100.00
14612;BME280;7392;52.078;11.650;2024-03-17T02:54:37;101603.81;;;2.00;100.00
14612;BME280;7392;52.078;11.650;2024-03-17T02:57:06;101610.69;;;1.98;100.00
14612;BME280;7392;52.078;11.650;2024-03-17T02:59:33;101612.31;;;1.96;100.00
14612;BME280;7392;52.078;11.650;2024-03-17T03:02:00;101615.72;;;1.94;100.00
14612;BME280;7392;52.078;11.650;2024-03-17T03:04:27;101614.75;;;1.92;100.00
14612;BME280;7392;52.078;11.650;2024-03-17T03:06:54;101616.38;;;1.90;100.00
14612;BME280;7392;52.078;11.650;2024-03-17T03:09:21;101619.78;;;1.87;100.00
14612;BME280;7392;52.078;11.650;2024-03-17T03:11:51;101615.28;;;1.84;100.00
14612;BME280;7392;52.078;11.650;2024-03-17T03:14:19;101618.66;;;1.82;100.00
14612;BME280;7392;52.078;11.650;2024-03-17T03:16:46;101618.59;;;1.80;100.00
14612;BME280;7392;52.078;11.650;2024-03-17T03:19:13;101616.72;;;1.78;100.00
14612;BME280;7392;52.078;11.650;2024-03-17T03:21:40;101622.78;;;1.77;100.00
14612;BME280;7392;52.078;11.650;2024-03-17T03:24:07;101620.09;;;1.75;100.00
14612;BME280;7392;52.078;11.650;2024-03-17T03:26:34;101625.16;;;1.72;100.00
14612;BME280;7392;52.078;11.650;2024-03-17T03:29:01;101626.81;;;1.70;100.00
14612;BME280;7392;52.078;11.650;2024-03-17T03:31:31;101632.84;;;1.67;100.00
14612;BME280;7392;52.078;11.650;2024-03-17T03:33:58;101625.72;;;1.65;100.00
14612;BME280;7392;52.078;11.650;2024-03-17T03:36:27;101628.19;;;1.62;100.00
14612;BME280;7392;52.078;11.650;2024-03-17T03:38:54;101624.66;;;1.61;100.00
14612;BME280;7392;52.078;11.650;2024-03-17T03:41:23;101609.75;;;1.60;100.00
14612;BME280;7392;52.078;11.650;2024-03-17T03:43:50;101621.91;;;1.58;100.00
14612;BME280;7392;52.078;11.650;2024-03-17T03:46:17;101623.63;;;1.58;100.00
14612;BME280;7392;52.078;11.650;2024-03-17T03:48:45;101618.22;;;1.55;100.00
14612;BME280;7392;52.078;11.650;2024-03-17T03:51:13;101626.09;;;1.55;100.00
14612;BME280;7392;52.078;11.650;2024-03-17T03:53:40;101624.28;;;1.54;100.00
14612;BME280;7392;52.078;11.650;2024-03-17T03:56:08;101632.97;;;1.53;100.00
14612;BME280;7392;52.078;11.650;2024-03-17T03:58:36;101623.31;;;1.52;100.00
14612;BME280;7392;52.078;11.650;2024-03-17T04:01:04;101624.97;;;1.49;100.00
14612;BME280;7392;52.078;11.650;2024-03-17T04:03:32;101627.44;;;1.46;100.00
14612;BME280;7392;52.078;11.650;2024-03-17T04:06:06;101626.53;;;1.46;100.00
14612;BME280;7392;52.078;11.650;2024-03-17T04:08:33;101625.56;;;1.44;100.00
14612;BME280;7392;52.078;11.650;2024-03-17T04:11:01;101628.13;;;1.42;100.00
14612;BME280;7392;52.078;11.650;2024-03-17T04:13:28;101621.91;;;1.40;100.00
14612;BME280;7392;52.078;11.650;2024-03-17T04:15:56;101625.34;;;1.39;100.00
14612;BME280;7392;52.078;11.650;2024-03-17T04:18:25;101626.13;;;1.37;100.00
14612;BME280;7392;52.078;11.650;2024-03-17T04:20:52;101626.03;;;1.35;100.00
14612;BME280;7392;52.078;11.650;2024-03-17T04:23:21;101626.91;;;1.36;100.00
14612;BME280;7392;52.078;11.650;2024-03-17T04:25:49;101616.28;;;1.33;100.00
14612;BME280;7392;52.078;11.650;2024-03-17T04:28:17;101614.50;;;1.32;100.00
14612;BME280;7392;52.078;11.650;2024-03-17T04:30:43;101617.88;;;1.29;100.00
14612;BME280;7392;52.078;11.650;2024-03-17T04:33:11;101623.81;;;1.26;100.00
14612;BME280;7392;52.078;11.650;2024-03-17T04:35:39;101626.41;;;1.25;100.00
14612;BME280;7392;52.078;11.650;2024-03-17T04:38:08;101628.94;;;1.23;100.00
14612;BME280;7392;52.078;11.650;2024-03-17T04:40:39;101623.53;;;1.20;100.00
14612;BME280;7392;52.078;11.650;2024-03-17T04:43:06;101630.50;;;1.20;100.00
14612;BME280;7392;52.078;11.650;2024-03-17T04:45:33;101635.66;;;1.18;100.00
14612;BME280;7392;52.078;11.650;2024-03-17T04:48:00;101628.53;;;1.16;100.00
14612;BME280;7392;52.078;11.650;2024-03-17T04:50:27;101636.38;;;1.16;100.00
14612;BME280;7392;52.078;11.650;2024-03-17T04:52:57;101634.53;;;1.13;100.00
14612;BME280;7392;52.078;11.650;2024-03-17T04:55:24;101631.91;;;1.13;100.00
14612;BME280;7392;52.078;11.650;2024-03-17T04:57:53;101631.84;;;1.11;100.00
14612;BME280;7392;52.078;11.650;2024-03-17T05:00:19;101636.16;;;1.11;100.00
14612;BME280;7392;52.078;11.650;2024-03-17T05:02:47;101634.44;;;1.11;100.00
14612;BME280;7392;52.078;11.650;2024-03-17T05:05:14;101638.72;;;1.09;100.00
14612;BME280;7392;52.078;11.650;2024-03-17T05:07:41;101638.56;;;1.06;100.00
14612;BME280;7392;52.078;11.650;2024-03-17T05:10:08;101638.56;;;1.06;100.00
14612;BME280;7392;52.078;11.650;2024-03-17T05:12:35;101642.81;;;1.04;100.00
14612;BME280;7392;52.078;11.650;2024-03-17T05:15:04;101641.81;;;1.02;100.00
14612;BME280;7392;52.078;11.650;2024-03-17T05:17:32;101647.06;;;1.02;100.00
14612;BME280;7392;52.078;11.650;2024-03-17T05:20:00;101648.69;;;1.00;100.00
14612;BME280;7392;52.078;11.650;2024-03-17T05:22:27;101645.13;;;0.98;100.00
14612;BME280;7392;52.078;11.650;2024-03-17T05:24:54;101652.88;;;0.97;100.00
14612;BME280;7392;52.078;11.650;2024-03-17T05:27:21;101649.28;;;0.95;100.00
14612;BME280;7392;52.078;11.650;2024-03-17T05:29:48;101656.97;;;0.91;100.00
14612;BME280;7392;52.078;11.650;2024-03-17T05:32:21;101655.94;;;0.88;100.00
14612;BME280;7392;52.078;11.650;2024-03-17T05:34:48;101650.44;;;0.83;100.00
14612;BME280;7392;52.078;11.650;2024-03-17T05:37:15;101653.81;;;0.81;100.00
14612;BME280;7392;52.078;11.650;2024-03-17T05:39:42;101657.25;;;0.80;100.00
14612;BME280;7392;52.078;11.650;2024-03-17T05:42:09;101666.81;;;0.79;100.00
14612;BME280;7392;52.078;11.650;2024-03-17T05:44:35;101669.44;;;0.79;100.00
14612;BME280;7392;52.078;11.650;2024-03-17T05:47:18;101670.16;;;0.77;100.00
14612;BME280;7392;52.078;11.650;2024-03-17T05:49:45;101678.00;;;0.77;100.00
14612;BME280;7392;52.078;11.650;2024-03-17T05:52:12;101679.72;;;0.76;100.00
14612;BME280;7392;52.078;11.650;2024-03-17T05:54:39;101682.34;;;0.76;100.00
14612;BME280;7392;52.078;11.650;2024-03-17T05:57:06;101683.22;;;0.77;100.00
14612;BME280;7392;52.078;11.650;2024-03-17T05:59:34;101686.84;;;0.79;100.00
14612;BME280;7392;52.078;11.650;2024-03-17T06:02:01;101689.53;;;0.80;100.00
14612;BME280;7392;52.078;11.650;2024-03-17T06:04:30;101699.34;;;0.84;100.00
14612;BME280;7392;52.078;11.650;2024-03-17T06:06:56;101696.91;;;0.87;100.00
14612;BME280;7392;52.078;11.650;2024-03-17T06:09:24;101691.00;;;0.91;100.00
14612;BME280;7392;52.078;11.650;2024-03-17T06:11:52;101691.31;;;0.98;100.00
14612;BME280;7392;52.078;11.650;2024-03-17T06:14:19;101693.25;;;1.02;100.00
14612;BME280;7392;52.078;11.650;2024-03-17T06:16:46;101705.03;;;1.10;100.00
14612;BME280;7392;52.078;11.650;2024-03-17T06:19:13;101713.19;;;1.16;100.00
14612;BME280;7392;52.078;11.650;2024-03-17T06:21:42;101719.63;;;1.23;100.00
14612;BME280;7392;52.078;11.650;2024-03-17T06:24:09;101723.53;;;1.31;100.00
14612;BME280;7392;52.078;11.650;2024-03-17T06:26:36;101722.22;;;1.39;100.00
14612;BME280;7392;52.078;11.650;2024-03-17T06:29:03;101720.00;;;1.47;100.00
14612;BME280;7392;52.078;11.650;2024-03-17T06:31:30;101726.41;;;1.54;100.00
14612;BME280;7392;52.078;11.650;2024-03-17T06:33:57;101725.00;;;1.60;100.00
14612;BME280;7392;52.078;11.650;2024-03-17T06:36:25;101720.16;;;1.68;100.00
14612;BME280;7392;52.078;11.650;2024-03-17T06:38:53;101720.59;;;1.77;100.00
14612;BME280;7392;52.078;11.650;2024-03-17T06:41:20;101724.50;;;1.85;100.00
14612;BME280;7392;52.078;11.650;2024-03-17T06:43:47;101726.59;;;1.93;100.00
14612;BME280;7392;52.078;11.650;2024-03-17T06:46:15;101724.34;;;2.00;100.00
14612;BME280;7392;52.078;11.650;2024-03-17T06:48:42;101726.59;;;2.11;100.00
14612;BME280;7392;52.078;11.650;2024-03-17T06:51:09;101727.94;;;2.20;100.00
14612;BME280;7392;52.078;11.650;2024-03-17T06:53:35;101732.72;;;2.29;100.00
14612;BME280;7392;52.078;11.650;2024-03-17T06:56:07;101731.41;;;2.39;100.00
14612;BME280;7392;52.078;11.650;2024-03-17T06:58:38;101742.25;;;2.47;100.00
14612;BME280;7392;52.078;11.650;2024-03-17T07:01:08;101740.97;;;2.56;100.00
14612;BME280;7392;52.078;11.650;2024-03-17T07:03:38;101730.00;;;2.65;100.00
14612;BME280;7392;52.078;11.650;2024-03-17T07:06:05;101731.38;;;2.76;100.00
14612;BME280;7392;52.078;11.650;2024-03-17T07:08:33;101724.81;;;2.86;100.00
14612;BME280;7392;52.078;11.650;2024-03-17T07:11:02;101726.13;;;2.96;100.00
14612;BME280;7392;52.078;11.650;2024-03-17T07:13:32;101742.41;;;3.08;100.00
14612;BME280;7392;52.078;11.650;2024-03-17T07:15:59;101733.16;;;3.16;100.00
14612;BME280;7392;52.078;11.650;2024-03-17T07:18:28;101737.06;;;3.26;100.00
14612;BME280;7392;52.078;11.650;2024-03-17T07:21:04;101735.00;;;3.39;100.00
14612;BME280;7392;52.078;11.650;2024-03-17T07:23:32;101738.00;;;3.48;100.00
14612;BME280;7392;52.078;11.650;2024-03-17T07:26:00;101729.59;;;3.56;100.00
14612;BME280;7392;52.078;11.650;2024-03-17T07:28:37;101727.38;;;3.66;100.00
14612;BME280;7392;52.078;11.650;2024-03-17T07:31:11;101734.81;;;3.76;100.00
14612;BME280;7392;52.078;11.650;2024-03-17T07:33:47;101725.59;;;3.87;100.00
14612;BME280;7392;52.078;11.650;2024-03-17T07:36:15;101733.94;;;3.98;100.00
14612;BME280;7392;52.078;11.650;2024-03-17T07:38:41;101738.75;;;4.08;100.00
14612;BME280;7392;52.078;11.650;2024-03-17T07:41:09;101731.22;;;4.18;100.00
14612;BME280;7392;52.078;11.650;2024-03-17T07:43:38;101732.47;;;4.27;100.00
14612;BME280;7392;52.078;11.650;2024-03-17T07:46:06;101731.94;;;4.36;100.00
14612;BME280;7392;52.078;11.650;2024-03-17T07:48:35;101734.84;;;4.44;100.00
14612;BME280;7392;52.078;11.650;2024-03-17T07:51:06;101737.78;;;4.52;100.00
14612;BME280;7392;52.078;11.650;2024-03-17T07:53:34;101735.50;;;4.61;100.00
14612;BME280;7392;52.078;11.650;2024-03-17T07:56:03;101738.50;;;4.70;100.00
14612;BME280;7392;52.078;11.650;2024-03-17T07:58:31;101743.25;;;4.80;100.00
14612;BME280;7392;52.078;11.650;2024-03-17T08:01:01;101749.72;;;4.89;100.00
14612;BME280;7392;52.078;11.650;2024-03-17T08:03:29;101743.06;;;5.00;100.00
14612;BME280;7392;52.078;11.650;2024-03-17T08:05:57;101751.22;;;5.06;100.00
14612;BME280;7392;52.078;11.650;2024-03-17T08:08:24;101740.94;;;5.14;100.00
14612;BME280;7392;52.078;11.650;2024-03-17T08:10:51;101741.16;;;5.20;100.00
14612;BME280;7392;52.078;11.650;2024-03-17T08:13:18;101742.28;;;5.27;100.00
14612;BME280;7392;52.078;11.650;2024-03-17T08:15:46;101740.88;;;5.36;100.00
14612;BME280;7392;52.078;11.650;2024-03-17T08:18:15;101743.00;;;5.47;100.00
14612;BME280;7392;52.078;11.650;2024-03-17T08:20:42;101740.78;;;5.59;100.00
14612;BME280;7392;52.078;11.650;2024-03-17T08:23:11;101743.81;;;5.71;100.00
14612;BME280;7392;52.078;11.650;2024-03-17T08:25:38;101736.25;;;5.82;100.00
14612;BME280;7392;52.078;11.650;2024-03-17T08:28:08;101727.97;;;5.97;100.00
14612;BME280;7392;52.078;11.650;2024-03-17T08:30:35;101720.44;;;6.09;100.00
14612;BME280;7392;52.078;11.650;2024-03-17T08:33:02;101718.19;;;6.22;100.00
14612;BME280;7392;52.078;11.650;2024-03-17T08:35:31;101714.97;;;6.30;100.00
14612;BME280;7392;52.078;11.650;2024-03-17T08:37:57;101714.25;;;6.36;100.00
14612;BME280;7392;52.078;11.650;2024-03-17T08:40:26;101711.84;;;6.44;100.00
14612;BME280;7392;52.078;11.650;2024-03-17T08:42:52;101710.28;;;6.50;100.00
14612;BME280;7392;52.078;11.650;2024-03-17T08:45:19;101707.94;;;6.60;100.00
14612;BME280;7392;52.078;11.650;2024-03-17T08:47:50;101709.06;;;6.69;100.00
14612;BME280;7392;52.078;11.650;2024-03-17T08:50:17;101706.63;;;6.76;100.00
14612;BME280;7392;52.078;11.650;2024-03-17T08:52:46;101707.81;;;6.87;100.00
14612;BME280;7392;52.078;11.650;2024-03-17T08:55:13;101710.72;;;6.96;100.00
14612;BME280;7392;52.078;11.650;2024-03-17T08:57:40;101704.88;;;7.08;100.00
14612;BME280;7392;52.078;11.650;2024-03-17T09:00:08;101715.84;;;7.23;100.00
14612;BME280;7392;52.078;11.650;2024-03-17T09:02:35;101717.16;;;7.39;100.00
14612;BME280;7392;52.078;11.650;2024-03-17T09:05:04;101712.22;;;7.52;100.00
14612;BME280;7392;52.078;11.650;2024-03-17T09:07:31;101707.13;;;7.61;100.00
14612;BME280;7392;52.078;11.650;2024-03-17T09:09:59;101701.34;;;7.76;98.85
14612;BME280;7392;52.078;11.650;2024-03-17T09:12:26;101704.28;;;7.88;97.47
14612;BME280;7392;52.078;11.650;2024-03-17T09:14:53;101702.69;;;7.95;94.92
14612;BME280;7392;52.078;11.650;2024-03-17T09:17:21;101703.00;;;8.09;94.42
14612;BME280;7392;52.078;11.650;2024-03-17T09:19:48;101691.81;;;8.20;94.10
14612;BME280;7392;52.078;11.650;2024-03-17T09:22:15;101696.38;;;8.28;93.00
14612;BME280;7392;52.078;11.650;2024-03-17T09:24:42;101691.16;;;8.31;90.51
14612;BME280;7392;52.078;11.650;2024-03-17T09:27:11;101695.72;;;8.38;90.28
14612;BME280;7392;52.078;11.650;2024-03-17T09:29:40;101689.75;;;8.47;89.90
14612;BME280;7392;52.078;11.650;2024-03-17T09:32:07;101690.22;;;8.68;89.17
14612;BME280;7392;52.078;11.650;2024-03-17T09:34:37;101689.78;;;8.91;90.26
14612;BME280;7392;52.078;11.650;2024-03-17T09:37:04;101696.41;;;9.14;90.21
14612;BME280;7392;52.078;11.650;2024-03-17T09:39:32;101689.84;;;9.41;90.41
14612;BME280;7392;52.078;11.650;2024-03-17T09:42:00;101686.59;;;9.59;89.33
14612;BME280;7392;52.078;11.650;2024-03-17T09:44:30;101688.34;;;9.59;83.55
14612;BME280;7392;52.078;11.650;2024-03-17T09:46:59;101684.06;;;9.65;78.91
14612;BME280;7392;52.078;11.650;2024-03-17T09:49:27;101690.50;;;9.81;78.27
14612;BME280;7392;52.078;11.650;2024-03-17T09:51:55;101687.81;;;9.80;79.03
14612;BME280;7392;52.078;11.650;2024-03-17T09:54:25;101691.19;;;9.69;76.32
14612;BME280;7392;52.078;11.650;2024-03-17T09:56:52;101691.25;;;9.72;78.38
14612;BME280;7392;52.078;11.650;2024-03-17T09:59:19;101697.56;;;9.81;79.34
14612;BME280;7392;52.078;11.650;2024-03-17T10:01:51;101688.72;;;9.82;79.30
14612;BME280;7392;52.078;11.650;2024-03-17T10:04:33;101691.50;;;9.89;80.26
14612;BME280;7392;52.078;11.650;2024-03-17T10:07:00;101703.06;;;9.93;79.63
14612;BME280;7392;52.078;11.650;2024-03-17T10:09:33;101692.53;;;9.98;78.03
14612;BME280;7392;52.078;11.650;2024-03-17T10:12:05;101688.53;;;10.29;76.87
14612;BME280;7392;52.078;11.650;2024-03-17T10:14:36;101692.47;;;10.54;75.06
14612;BME280;7392;52.078;11.650;2024-03-17T10:17:04;101688.16;;;10.65;74.34
14612;BME280;7392;52.078;11.650;2024-03-17T10:19:37;101686.44;;;10.69;72.68
14612;BME280;7392;52.078;11.650;2024-03-17T10:22:12;101697.22;;;10.81;71.94
14612;BME280;7392;52.078;11.650;2024-03-17T10:24:39;101689.06;;;10.66;66.38
14612;BME280;7392;52.078;11.650;2024-03-17T10:27:10;101690.72;;;10.58;68.52
14612;BME280;7392;52.078;11.650;2024-03-17T10:29:37;101688.00;;;10.53;67.83
14612;BME280;7392;52.078;11.650;2024-03-17T10:32:13;101691.72;;;10.64;67.85
14612;BME280;7392;52.078;11.650;2024-03-17T10:34:42;101700.50;;;10.62;67.88
14612;BME280;7392;52.078;11.650;2024-03-17T10:37:10;101701.38;;;10.58;66.81
14612;BME280;7392;52.078;11.650;2024-03-17T10:39:38;101698.75;;;10.61;66.25
14612;BME280;7392;52.078;11.650;2024-03-17T10:42:07;101691.69;;;10.63;67.01
14612;BME280;7392;52.078;11.650;2024-03-17T10:44:36;101695.16;;;10.56;64.71
14612;BME280;7392;52.078;11.650;2024-03-17T10:47:06;101684.56;;;10.62;65.09
14612;BME280;7392;52.078;11.650;2024-03-17T10:49:37;101687.56;;;10.91;65.11
14612;BME280;7392;52.078;11.650;2024-03-17T10:52:06;101679.78;;;11.08;62.18
14612;BME280;7392;52.078;11.650;2024-03-17T10:54:35;101688.09;;;11.40;63.40
14612;BME280;7392;52.078;11.650;2024-03-17T10:57:23;101672.28;;;11.59;64.29
14612;BME280;7392;52.078;11.650;2024-03-17T10:59:53;101688.50;;;11.90;64.50
14612;BME280;7392;52.078;11.650;2024-03-17T11:02:23;101674.53;;;12.20;64.47
14612;BME280;7392;52.078;11.650;2024-03-17T11:04:55;101675.56;;;12.50;63.56
14612;BME280;7392;52.078;11.650;2024-03-17T11:07:23;101682.81;;;12.82;64.38
14612;BME280;7392;52.078;11.650;2024-03-17T11:09:52;101683.72;;;12.95;63.14
14612;BME280;7392;52.078;11.650;2024-03-17T11:12:43;101677.50;;;12.96;62.77
14612;BME280;7392;52.078;11.650;2024-03-17T11:15:36;101674.81;;;12.89;60.94
14612;BME280;7392;52.078;11.650;2024-03-17T11:18:37;101681.91;;;12.84;58.77
14612;BME280;7392;52.078;11.650;2024-03-17T11:21:07;101678.34;;;12.81;57.67
14612;BME280;7392;52.078;11.650;2024-03-17T11:23:34;101677.53;;;13.00;57.78
14612;BME280;7392;52.078;11.650;2024-03-17T11:26:03;101671.38;;;13.29;58.66
14612;BME280;7392;52.078;11.650;2024-03-17T11:28:51;101679.44;;;13.61;59.31
14612;BME280;7392;52.078;11.650;2024-03-17T11:31:38;101674.94;;;13.87;57.13
14612;BME280;7392;52.078;11.650;2024-03-17T11:34:35;101672.25;;;14.03;53.88
14612;BME280;7392;52.078;11.650;2024-03-17T11:37:03;101665.09;;;14.18;52.40
14612;BME280;7392;52.078;11.650;2024-03-17T11:39:50;101662.41;;;14.26;51.08
14612;BME280;7392;52.078;11.650;2024-03-17T11:42:22;101655.31;;;14.17;49.28
14612;BME280;7392;52.078;11.650;2024-03-17T11:45:01;101660.72;;;13.91;47.74
14612;BME280;7392;52.078;11.650;2024-03-17T11:47:35;101653.63;;;13.67;48.67
14612;BME280;7392;52.078;11.650;2024-03-17T11:50:06;101659.81;;;13.82;49.69
14612;BME280;7392;52.078;11.650;2024-03-17T11:52:34;101651.78;;;13.95;50.22
14612;BME280;7392;52.078;11.650;2024-03-17T11:55:01;101651.75;;;14.19;51.34
14612;BME280;7392;52.078;11.650;2024-03-17T11:57:27;101646.31;;;14.47;51.50
14612;BME280;7392;52.078;11.650;2024-03-17T11:59:55;101643.59;;;14.59;49.20
14612;BME280;7392;52.078;11.650;2024-03-17T12:02:22;101641.69;;;14.88;51.84
14612;BME280;7392;52.078;11.650;2024-03-17T12:04:51;101651.31;;;15.13;52.08
14612;BME280;7392;52.078;11.650;2024-03-17T12:07:21;101653.81;;;15.38;51.81
14612;BME280;7392;52.078;11.650;2024-03-17T12:09:50;101650.13;;;15.55;50.81
14612;BME280;7392;52.078;11.650;2024-03-17T12:12:19;101654.53;;;15.60;50.22
14612;BME280;7392;52.078;11.650;2024-03-17T12:14:46;101648.38;;;15.47;48.64
14612;BME280;7392;52.078;11.650;2024-03-17T12:17:14;101646.41;;;15.68;49.47
14612;BME280;7392;52.078;11.650;2024-03-17T12:19:41;101647.19;;;15.84;49.63
14612;BME280;7392;52.078;11.650;2024-03-17T12:22:15;101638.31;;;15.82;49.35
14612;BME280;7392;52.078;11.650;2024-03-17T12:24:43;101640.16;;;15.75;49.48
14612;BME280;7392;52.078;11.650;2024-03-17T12:27:17;101638.41;;;15.66;49.16
14612;BME280;7392;52.078;11.650;2024-03-17T12:29:43;101642.94;;;15.58;49.38
14612;BME280;7392;52.078;11.650;2024-03-17T12:32:13;101632.31;;;15.49;48.68
14612;BME280;7392;52.078;11.650;2024-03-17T12:34:40;101639.56;;;15.36;47.93
14612;BME280;7392;52.078;11.650;2024-03-17T12:37:08;101631.41;;;15.51;48.06
14612;BME280;7392;52.078;11.650;2024-03-17T12:39:34;101616.94;;;15.71;48.23
14612;BME280;7392;52.078;11.650;2024-03-17T12:42:07;101613.22;;;15.91;47.71
14612;BME280;7392;52.078;11.650;2024-03-17T12:44:34;101610.28;;;16.11;46.81
14612;BME280;7392;52.078;11.650;2024-03-17T12:47:02;101608.25;;;16.31;45.64
14612;BME280;7392;52.078;11.650;2024-03-17T12:49:30;101610.63;;;16.56;45.84
14612;BME280;7392;52.078;11.650;2024-03-17T12:51:57;101607.13;;;16.51;44.03
14612;BME280;7392;52.078;11.650;2024-03-17T12:54:24;101606.41;;;16.36;42.74
14612;BME280;7392;52.078;11.650;2024-03-17T12:57:02;101601.84;;;16.43;43.27